sensor_id;sensor_type;location;lat;lon;timestamp;pressure;altitude;pressure_sealevel;temperature;humidity
64827;BME280;51265;53.972;12.286;2023-05-13T00:00:29;101579.66;;;8.23;94.18
64827;BME280;51265;53.972;12.286;2023-05-13T00:02:56;101572.81;;;8.20;94.99
64827;BME280;51265;53.972;12.286;2023-05-13T00:05:22;101570.84;;;8.16;95.23
64827;BME280;51265;53.972;12.286;2023-05-13T00:07:48;101566.69;;;8.13;95.31
64827;BME280;51265;53.972;12.286;2023-05-13T00:10:14;101569.13;;;8.10;95.99
64827;BME280;51265;53.972;12.286;2023-05-13T00:12:41;101553.13;;;8.02;96.63
64827;BME280;51265;53.972;12.286;2023-05-13T00:15:07;101569.53;;;7.96;96.67
64827;BME280;51265;53.972;12.286;2023-05-13T00:17:34;101571.44;;;7.96;97.29
64827;BME280;51265;53.972;12.286;2023-05-13T00:20:00;101567.31;;;7.93;97.69
64827;BME280;51265;53.972;12.286;2023-05-13T00:22:26;101571.13;;;7.92;98.93
64827;BME280;51265;53.972;12.286;2023-05-13T00:24:52;101573.84;;;7.87;99.15
64827;BME280;51265;53.972;12.286;2023-05-13T00:27:18;101582.88;;;7.88;100.00
64827;BME280;51265;53.972;12.286;2023-05-13T00:29:44;101578.16;;;7.83;100.00
64827;BME280;51265;53.972;12.286;2023-05-13T00:32:11;101575.38;;;7.78;100.00
64827;BME280;51265;53.972;12.286;2023-05-13T00:34:37;101577.53;;;7.76;100.00
64827;BME280;51265;53.972;12.286;2023-05-13T00:37:03;101575.38;;;7.78;100.00
64827;BME280;51265;53.972;12.286;2023-05-13T00:39:29;101580.31;;;7.81;100.00
64827;BME280;51265;53.972;12.286;2023-05-13T00:41:56;101574.84;;;7.81;100.00
64827;BME280;51265;53.972;12.286;2023-05-13T00:44:26;101574.28;;;7.79;100.00
64827;BME280;51265;53.972;12.286;2023-05-13T00:46:52;101574.84;;;7.81;100.00
64827;BME280;51265;53.972;12.286;2023-05-13T00:49:19;101581.41;;;7.80;100.00
64827;BME280;51265;53.972;12.286;2023-05-13T00:51:45;101572.06;;;7.76;100.00
64827;BME280;51265;53.972;12.286;2023-05-13T00:54:12;101579.13;;;7.72;100.00
64827;BME280;51265;53.972;12.286;2023-05-13T00:56:38;101579.63;;;7.69;100.00
64827;BME280;51265;53.972;12.286;2023-05-13T00:59:04;101576.91;;;7.69;100.00
64827;BME280;51265;53.972;12.286;2023-05-13T01:02:02;101575.25;;;7.68;100.00
64827;BME280;51265;53.972;12.286;2023-05-13T01:07:35;101572.44;;;7.63;100.00
64827;BME280;51265;53.972;12.286;2023-05-13T01:10:10;101576.53;;;7.60;100.00
64827;BME280;51265;53.972;12.286;2023-05-13T01:12:41;101575.69;;;7.60;100.00
64827;BME280;51265;53.972;12.286;2023-05-13T01:15:11;101570.75;;;7.57;100.00
64827;BME280;51265;53.972;12.286;2023-05-13T01:17:45;101576.78;;;7.59;100.00
64827;BME280;51265;53.972;12.286;2023-05-13T01:20:13;101580.13;;;7.61;100.00
64827;BME280;51265;53.972;12.286;2023-05-13T01:22:39;101577.94;;;7.63;100.00
64827;BME280;51265;53.972;12.286;2023-05-13T01:25:06;101598.00;;;7.90;100.00
64827;BME280;51265;53.972;12.286;2023-05-13T01:27:33;101591.53;;;8.02;100.00
64827;BME280;51265;53.972;12.286;2023-05-13T01:30:02;101581.09;;;7.98;100.00
64827;BME280;51265;53.972;12.286;2023-05-13T01:32:31;101587.97;;;8.01;100.00
64827;BME280;51265;53.972;12.286;2023-05-13T01:34:59;101597.84;;;8.02;100.00
64827;BME280;51265;53.972;12.286;2023-05-13T01:37:29;101595.94;;;8.03;100.00
64827;BME280;51265;53.972;12.286;2023-05-13T01:39:55;101598.94;;;8.01;100.00
64827;BME280;51265;53.972;12.286;2023-05-13T01:42:22;101592.88;;;7.99;100.00
64827;BME280;51265;53.972;12.286;2023-05-13T01:44:52;101592.88;;;7.99;100.00
64827;BME280;51265;53.972;12.286;2023-05-13T01:47:19;101600.03;;;8.00;100.00
64827;BME280;51265;53.972;12.286;2023-05-13T01:49:47;101593.72;;;7.99;100.00
64827;BME280;51265;53.972;12.286;2023-05-13T01:52:14;101594.84;;;8.04;100.00
64827;BME280;51265;53.972;12.286;2023-05-13T01:54:40;101604.69;;;7.99;100.00
64827;BME280;51265;53.972;12.286;2023-05-13T01:57:10;101588.47;;;7.98;100.00
64827;BME280;51265;53.972;12.286;2023-05-13T01:59:37;101594.22;;;7.96;100.00
64827;BME280;51265;53.972;12.286;2023-05-13T02:02:03;101591.97;;;7.93;100.00
64827;BME280;51265;53.972;12.286;2023-05-13T02:04:30;101599.06;;;7.89;100.00
64827;BME280;51265;53.972;12.286;2023-05-13T02:06:57;101585.81;;;7.81;100.00
64827;BME280;51265;53.972;12.286;2023-05-13T02:09:26;101588.50;;;7.76;100.00
64827;BME280;51265;53.972;12.286;2023-05-13T02:11:52;101596.19;;;7.74;100.00
64827;BME280;51265;53.972;12.286;2023-05-13T02:14:18;101597.78;;;7.70;100.00
64827;BME280;51265;53.972;12.286;2023-05-13T02:16:45;101597.19;;;7.68;100.00
64827;BME280;51265;53.972;12.286;2023-05-13T02:19:11;101594.72;;;7.66;100.00
64827;BME280;51265;53.972;12.286;2023-05-13T02:21:37;101588.34;;;7.61;100.00
64827;BME280;51265;53.972;12.286;2023-05-13T02:24:06;101591.59;;;7.58;100.00
64827;BME280;51265;53.972;12.286;2023-05-13T02:26:33;101592.09;;;7.55;100.00
64827;BME280;51265;53.972;12.286;2023-05-13T02:28:59;101597.63;;;7.60;100.00
64827;BME280;51265;53.972;12.286;2023-05-13T02:31:25;101596.56;;;7.61;100.00
64827;BME280;51265;53.972;12.286;2023-05-13T02:33:52;101599.22;;;7.56;100.00
64827;BME280;51265;53.972;12.286;2023-05-13T02:36:18;101595.97;;;7.37;100.00
64827;BME280;51265;53.972;12.286;2023-05-13T02:38:45;101596.19;;;7.13;100.00
64827;BME280;51265;53.972;12.286;2023-05-13T02:41:14;101600.72;;;7.03;100.00
64827;BME280;51265;53.972;12.286;2023-05-13T02:43:41;101602.84;;;7.01;100.00
64827;BME280;51265;53.972;12.286;2023-05-13T02:46:07;101605.25;;;6.97;100.00
64827;BME280;51265;53.972;12.286;2023-05-13T02:48:33;101602.19;;;6.93;100.00
64827;BME280;51265;53.972;12.286;2023-05-13T02:51:01;101599.53;;;6.98;100.00
64827;BME280;51265;53.972;12.286;2023-05-13T02:53:27;101596.81;;;6.98;100.00
64827;BME280;51265;53.972;12.286;2023-05-13T02:55:58;101600.03;;;6.95;100.00
64827;BME280;51265;53.972;12.286;2023-05-13T02:58:25;101607.66;;;6.93;100.00
64827;BME280;51265;53.972;12.286;2023-05-13T03:00:52;101601.03;;;6.89;100.00
64827;BME280;51265;53.972;12.286;2023-05-13T03:03:21;101609.94;;;7.18;100.00
64827;BME280;51265;53.972;12.286;2023-05-13T03:05:47;101605.16;;;7.47;100.00
64827;BME280;51265;53.972;12.286;2023-05-13T03:08:15;101599.22;;;7.56;100.00
64827;BME280;51265;53.972;12.286;2023-05-13T03:10:41;101598.22;;;7.62;100.00
64827;BME280;51265;53.972;12.286;2023-05-13T03:13:07;101597.06;;;7.58;100.00
64827;BME280;51265;53.972;12.286;2023-05-13T03:15:34;101602.56;;;7.58;100.00
64827;BME280;51265;53.972;12.286;2023-05-13T03:18:00;101600.38;;;7.60;100.00
64827;BME280;51265;53.972;12.286;2023-05-13T03:20:27;101607.00;;;7.64;100.00
64827;BME280;51265;53.972;12.286;2023-05-13T03:22:53;101609.78;;;7.69;100.00
64827;BME280;51265;53.972;12.286;2023-05-13T03:25:19;101604.31;;;7.69;100.00
64827;BME280;51265;53.972;12.286;2023-05-13T03:27:51;101606.00;;;7.70;100.00
64827;BME280;51265;53.972;12.286;2023-05-13T03:30:20;101607.91;;;7.69;100.00
64827;BME280;51265;53.972;12.286;2023-05-13T03:32:53;101606.00;;;7.70;100.00
64827;BME280;51265;53.972;12.286;2023-05-13T03:35:19;101608.72;;;7.70;100.00
64827;BME280;51265;53.972;12.286;2023-05-13T03:37:46;101610.94;;;7.73;100.00
64827;BME280;51265;53.972;12.286;2023-05-13T03:40:14;101613.78;;;7.78;100.00
64827;BME280;51265;53.972;12.286;2023-05-13T03:42:41;101614.38;;;7.85;100.00
64827;BME280;51265;53.972;12.286;2023-05-13T03:45:08;101612.22;;;7.87;100.00
64827;BME280;51265;53.972;12.286;2023-05-13T03:47:36;101616.69;;;7.93;100.00
64827;BME280;51265;53.972;12.286;2023-05-13T03:50:07;101616.81;;;8.04;100.00
64827;BME280;51265;53.972;12.286;2023-05-13T03:52:40;101618.31;;;8.16;100.00
64827;BME280;51265;53.972;12.286;2023-05-13T03:55:06;101619.69;;;8.19;100.00
64827;BME280;51265;53.972;12.286;2023-05-13T03:57:34;101618.94;;;8.23;100.00
64827;BME280;51265;53.972;12.286;2023-05-13T04:00:00;101617.94;;;8.35;100.00
64827;BME280;51265;53.972;12.286;2023-05-13T04:02:27;101615.56;;;8.43;100.00
64827;BME280;51265;53.972;12.286;2023-05-13T04:04:53;101614.31;;;8.56;100.00
64827;BME280;51265;53.972;12.286;2023-05-13T04:07:19;101609.75;;;8.67;100.00
64827;BME280;51265;53.972;12.286;2023-05-13T04:09:46;101606.00;;;8.78;100.00
64827;BME280;51265;53.972;12.286;2023-05-13T04:12:12;101605.78;;;8.85;100.00
64827;BME280;51265;53.972;12.286;2023-05-13T04:14:39;101607.16;;;8.87;100.00
64827;BME280;51265;53.972;12.286;2023-05-13T04:17:06;101612.19;;;8.95;100.00
64827;BME280;51265;53.972;12.286;2023-05-13T04:19:32;101617.72;;;9.06;100.00
64827;BME280;51265;53.972;12.286;2023-05-13T04:21:58;101617.50;;;9.12;100.00
64827;BME280;51265;53.972;12.286;2023-05-13T04:24:25;101617.31;;;9.24;100.00
64827;BME280;51265;53.972;12.286;2023-05-13T04:26:51;101617.34;;;9.29;100.00
64827;BME280;51265;53.972;12.286;2023-05-13T04:29:18;101609.94;;;9.35;100.00
64827;BME280;51265;53.972;12.286;2023-05-13T04:31:46;101617.97;;;9.41;100.00
64827;BME280;51265;53.972;12.286;2023-05-13T04:34:13;101617.47;;;9.50;100.00
64827;BME280;51265;53.972;12.286;2023-05-13T04:36:39;101615.84;;;9.59;100.00
64827;BME280;51265;53.972;12.286;2023-05-13T04:39:06;101615.34;;;9.72;100.00
64827;BME280;51265;53.972;12.286;2023-05-13T04:41:32;101619.00;;;9.88;100.00
64827;BME280;51265;53.972;12.286;2023-05-13T04:43:59;101622.59;;;9.98;100.00
64827;BME280;51265;53.972;12.286;2023-05-13T04:46:25;101619.88;;;10.14;100.00
64827;BME280;51265;53.972;12.286;2023-05-13T04:48:52;101622.72;;;10.29;100.00
64827;BME280;51265;53.972;12.286;2023-05-13T04:51:18;101619.97;;;10.34;100.00
64827;BME280;51265;53.972;12.286;2023-05-13T04:53:45;101620.53;;;10.46;100.00
64827;BME280;51265;53.972;12.286;2023-05-13T04:56:12;101617.22;;;10.60;99.88
64827;BME280;51265;53.972;12.286;2023-05-13T04:58:38;101618.91;;;10.66;99.07
64827;BME280;51265;53.972;12.286;2023-05-13T05:01:05;101605.66;;;10.78;98.02
64827;BME280;51265;53.972;12.286;2023-05-13T05:03:31;101603.72;;;10.94;97.14
64827;BME280;51265;53.972;12.286;2023-05-13T05:05:58;101604.53;;;11.05;96.24
64827;BME280;51265;53.972;12.286;2023-05-13T05:08:25;101604.50;;;11.15;95.54
64827;BME280;51265;53.972;12.286;2023-05-13T05:10:54;101596.00;;;11.01;95.19
64827;BME280;51265;53.972;12.286;2023-05-13T05:13:20;101595.16;;;10.90;95.62
64827;BME280;51265;53.972;12.286;2023-05-13T05:15:46;101604.00;;;10.97;95.73
64827;BME280;51265;53.972;12.286;2023-05-13T05:18:14;101600.66;;;11.06;95.61
64827;BME280;51265;53.972;12.286;2023-05-13T05:20:43;101612.53;;;11.16;95.34
64827;BME280;51265;53.972;12.286;2023-05-13T05:23:14;101615.50;;;11.30;94.67
64827;BME280;51265;53.972;12.286;2023-05-13T05:25:41;101604.44;;;11.45;94.50
64827;BME280;51265;53.972;12.286;2023-05-13T05:28:08;101607.69;;;11.58;94.35
64827;BME280;51265;53.972;12.286;2023-05-13T05:30:36;101614.28;;;11.72;93.81
64827;BME280;51265;53.972;12.286;2023-05-13T05:33:10;101618.44;;;12.29;90.50
64827;BME280;51265;53.972;12.286;2023-05-13T05:35:38;101605.00;;;12.52;87.79
64827;BME280;51265;53.972;12.286;2023-05-13T05:38:10;101594.94;;;12.66;85.05
64827;BME280;51265;53.972;12.286;2023-05-13T05:40:42;101577.72;;;12.74;83.14
64827;BME280;51265;53.972;12.286;2023-05-13T05:43:10;101582.00;;;12.90;81.66
64827;BME280;51265;53.972;12.286;2023-05-13T05:45:37;101572.38;;;13.12;80.88
64827;BME280;51265;53.972;12.286;2023-05-13T05:48:05;101572.28;;;13.22;79.74
64827;BME280;51265;53.972;12.286;2023-05-13T05:50:33;101568.25;;;13.38;78.42
64827;BME280;51265;53.972;12.286;2023-05-13T05:53:03;101560.88;;;13.53;76.81
64827;BME280;51265;53.972;12.286;2023-05-13T05:55:30;101543.59;;;13.61;74.82
64827;BME280;51265;53.972;12.286;2023-05-13T05:58:02;101531.88;;;13.69;73.04
64827;BME280;51265;53.972;12.286;2023-05-13T06:00:31;101531.44;;;13.81;72.36
64827;BME280;51265;53.972;12.286;2023-05-13T06:03:00;101518.88;;;13.88;71.58
64827;BME280;51265;53.972;12.286;2023-05-13T06:05:27;101513.84;;;13.90;71.46
64827;BME280;51265;53.972;12.286;2023-05-13T06:07:53;101508.09;;;14.06;70.92
64827;BME280;51265;53.972;12.286;2023-05-13T06:10:20;101507.00;;;14.20;70.21
64827;BME280;51265;53.972;12.286;2023-05-13T06:12:47;101507.91;;;14.35;69.67
64827;BME280;51265;53.972;12.286;2023-05-13T06:15:13;101507.97;;;14.49;69.46
64827;BME280;51265;53.972;12.286;2023-05-13T06:17:40;101506.03;;;14.63;69.23
64827;BME280;51265;53.972;12.286;2023-05-13T06:20:07;101500.22;;;14.78;68.61
64827;BME280;51265;53.972;12.286;2023-05-13T06:22:35;101491.09;;;14.91;67.56
64827;BME280;51265;53.972;12.286;2023-05-13T06:25:01;101500.25;;;15.06;67.16
64827;BME280;51265;53.972;12.286;2023-05-13T06:27:28;101480.72;;;15.11;65.90
64827;BME280;51265;53.972;12.286;2023-05-13T06:29:54;101476.41;;;15.32;65.51
64827;BME280;51265;53.972;12.286;2023-05-13T06:32:20;101468.75;;;15.52;64.80
64827;BME280;51265;53.972;12.286;2023-05-13T06:34:47;101474.06;;;15.62;64.08
64827;BME280;51265;53.972;12.286;2023-05-13T06:37:14;101476.16;;;15.70;63.71
64827;BME280;51265;53.972;12.286;2023-05-13T06:39:41;101463.16;;;15.79;63.22
64827;BME280;51265;53.972;12.286;2023-05-13T06:42:08;101456.59;;;15.75;62.49
64827;BME280;51265;53.972;12.286;2023-05-13T06:44:42;101460.69;;;15.78;62.48
64827;BME280;51265;53.972;12.286;2023-05-13T06:47:09;101450.53;;;15.96;61.82
64827;BME280;51265;53.972;12.286;2023-05-13T06:49:40;101440.44;;;16.00;61.46
64827;BME280;51265;53.972;12.286;2023-05-13T06:52:08;101444.09;;;16.09;60.99
64827;BME280;51265;53.972;12.286;2023-05-13T06:54:35;101435.28;;;16.07;60.59
64827;BME280;51265;53.972;12.286;2023-05-13T06:57:02;101443.97;;;16.36;60.65
64827;BME280;51265;53.972;12.286;2023-05-13T06:59:30;101446.97;;;16.49;60.55
64827;BME280;51265;53.972;12.286;2023-05-13T07:01:57;101442.41;;;16.53;60.55
64827;BME280;51265;53.972;12.286;2023-05-13T07:04:23;101438.06;;;16.60;60.03
64827;BME280;51265;53.972;12.286;2023-05-13T07:06:49;101448.75;;;16.76;59.91
64827;BME280;51265;53.972;12.286;2023-05-13T07:09:16;101446.72;;;16.90;59.83
64827;BME280;51265;53.972;12.286;2023-05-13T07:11:43;101450.53;;;17.03;59.67
64827;BME280;51265;53.972;12.286;2023-05-13T07:14:09;101441.19;;;17.07;59.82
64827;BME280;51265;53.972;12.286;2023-05-13T07:16:35;101440.94;;;17.35;59.25
64827;BME280;51265;53.972;12.286;2023-05-13T07:19:02;101442.75;;;17.39;58.81
64827;BME280;51265;53.972;12.286;2023-05-13T07:21:28;101426.69;;;17.36;58.69
64827;BME280;51265;53.972;12.286;2023-05-13T07:23:56;101430.47;;;17.49;58.07
64827;BME280;51265;53.972;12.286;2023-05-13T07:26:22;101426.88;;;17.57;57.59
64827;BME280;51265;53.972;12.286;2023-05-13T07:28:49;101423.47;;;17.86;56.99
64827;BME280;51265;53.972;12.286;2023-05-13T07:31:15;101417.22;;;18.15;56.23
64827;BME280;51265;53.972;12.286;2023-05-13T07:33:42;101420.44;;;18.26;56.55
64827;BME280;51265;53.972;12.286;2023-05-13T07:36:08;101415.28;;;18.54;55.72
64827;BME280;51265;53.972;12.286;2023-05-13T07:38:34;101401.66;;;18.61;55.23
64827;BME280;51265;53.972;12.286;2023-05-13T07:41:01;101394.41;;;18.69;53.83
64827;BME280;51265;53.972;12.286;2023-05-13T07:43:27;101391.34;;;18.91;53.35
64827;BME280;51265;53.972;12.286;2023-05-13T07:45:54;101396.84;;;19.09;53.79
64827;BME280;51265;53.972;12.286;2023-05-13T07:48:20;101396.53;;;19.31;53.58
64827;BME280;51265;53.972;12.286;2023-05-13T07:50:46;101395.78;;;19.43;53.04
64827;BME280;51265;53.972;12.286;2023-05-13T07:53:13;101396.19;;;19.54;52.89
64827;BME280;51265;53.972;12.286;2023-05-13T07:55:39;101402.31;;;19.89;52.48
64827;BME280;51265;53.972;12.286;2023-05-13T07:58:06;101371.75;;;20.05;51.03
64827;BME280;51265;53.972;12.286;2023-05-13T08:00:33;101371.81;;;20.29;50.32
64827;BME280;51265;53.972;12.286;2023-05-13T08:02:59;101385.13;;;20.45;51.06
64827;BME280;51265;53.972;12.286;2023-05-13T08:05:26;101388.69;;;20.78;50.70
64827;BME280;51265;53.972;12.286;2023-05-13T08:07:52;101358.47;;;20.96;48.69
64827;BME280;51265;53.972;12.286;2023-05-13T08:10:18;101341.56;;;20.80;48.75
64827;BME280;51265;53.972;12.286;2023-05-13T08:12:45;101332.69;;;20.78;48.23
64827;BME280;51265;53.972;12.286;2023-05-13T08:15:16;101333.38;;;21.00;48.35
64827;BME280;51265;53.972;12.286;2023-05-13T08:17:42;101329.94;;;21.19;48.12
64827;BME280;51265;53.972;12.286;2023-05-13T08:20:09;101328.53;;;21.25;48.00
64827;BME280;51265;53.972;12.286;2023-05-13T08:22:36;101329.78;;;21.27;48.31
64827;BME280;51265;53.972;12.286;2023-05-13T08:25:03;101304.88;;;21.10;47.35
64827;BME280;51265;53.972;12.286;2023-05-13T08:27:29;101306.00;;;21.21;46.52
64827;BME280;51265;53.972;12.286;2023-05-13T08:29:56;101325.91;;;21.44;47.16
64827;BME280;51265;53.972;12.286;2023-05-13T08:32:22;101319.19;;;21.61;46.73
64827;BME280;51265;53.972;12.286;2023-05-13T08:34:48;101285.47;;;21.57;45.94
64827;BME280;51265;53.972;12.286;2023-05-13T08:37:15;101279.25;;;21.64;44.85
64827;BME280;51265;53.972;12.286;2023-05-13T08:39:42;101286.69;;;21.72;45.25
64827;BME280;51265;53.972;12.286;2023-05-13T08:42:14;101271.31;;;21.66;44.74
64827;BME280;51265;53.972;12.286;2023-05-13T08:44:45;101264.31;;;21.60;44.67
64827;BME280;51265;53.972;12.286;2023-05-13T08:49:47;101289.72;;;21.95;45.17
64827;BME280;51265;53.972;12.286;2023-05-13T08:52:13;101278.13;;;21.97;44.55
64827;BME280;51265;53.972;12.286;2023-05-13T08:54:42;101276.94;;;21.98;44.53
64827;BME280;51265;53.972;12.286;2023-05-13T08:57:08;101294.69;;;22.02;45.31
64827;BME280;51265;53.972;12.286;2023-05-13T08:59:34;101283.78;;;22.12;44.10
64827;BME280;51265;53.972;12.286;2023-05-13T09:02:03;101302.53;;;22.24;44.96
64827;BME280;51265;53.972;12.286;2023-05-13T09:04:31;101280.41;;;22.38;44.14
64827;BME280;51265;53.972;12.286;2023-05-13T09:06:57;101257.34;;;22.13;43.89
64827;BME280;51265;53.972;12.286;2023-05-13T09:09:24;101259.06;;;22.18;43.71
64827;BME280;51265;53.972;12.286;2023-05-13T09:11:50;101239.31;;;21.99;42.88
64827;BME280;51265;53.972;12.286;2023-05-13T09:14:20;101240.53;;;22.13;42.20
64827;BME280;51265;53.972;12.286;2023-05-13T09:16:46;101264.75;;;22.37;42.87
64827;BME280;51265;53.972;12.286;2023-05-13T09:19:13;101260.66;;;22.51;42.25
64827;BME280;51265;53.972;12.286;2023-05-13T09:21:39;101253.06;;;22.51;42.59
64827;BME280;51265;53.972;12.286;2023-05-13T09:24:11;101264.81;;;22.57;42.72
64827;BME280;51265;53.972;12.286;2023-05-13T09:26:39;101254.47;;;22.61;42.26
64827;BME280;51265;53.972;12.286;2023-05-13T09:31:48;101262.00;;;22.57;43.16
64827;BME280;51265;53.972;12.286;2023-05-13T09:34:23;101271.53;;;22.87;42.63
64827;BME280;51265;53.972;12.286;2023-05-13T09:37:07;101232.53;;;22.82;42.08
64827;BME280;51265;53.972;12.286;2023-05-13T09:39:39;101210.91;;;22.67;40.63
64827;BME280;51265;53.972;12.286;2023-05-13T09:42:16;101220.63;;;22.89;40.57
64827;BME280;51265;53.972;12.286;2023-05-13T09:44:43;101231.66;;;22.98;41.37
64827;BME280;51265;53.972;12.286;2023-05-13T09:47:12;101185.19;;;22.65;40.16
64827;BME280;51265;53.972;12.286;2023-05-13T09:49:40;101198.97;;;22.90;39.73
64827;BME280;51265;53.972;12.286;2023-05-13T09:52:10;101219.69;;;23.01;41.01
64827;BME280;51265;53.972;12.286;2023-05-13T09:54:37;101212.75;;;23.14;40.36
64827;BME280;51265;53.972;12.286;2023-05-13T09:57:04;101192.19;;;23.10;39.90
64827;BME280;51265;53.972;12.286;2023-05-13T09:59:34;101222.31;;;23.32;40.98
64827;BME280;51265;53.972;12.286;2023-05-13T10:02:05;101207.53;;;23.55;39.57
64827;BME280;51265;53.972;12.286;2023-05-13T10:04:32;101197.50;;;23.77;39.00
64827;BME280;51265;53.972;12.286;2023-05-13T10:07:01;101171.41;;;24.03;37.52
64827;BME280;51265;53.972;12.286;2023-05-13T10:09:33;101149.28;;;24.01;37.25
64827;BME280;51265;53.972;12.286;2023-05-13T10:12:01;101118.28;;;23.98;35.95
64827;BME280;51265;53.972;12.286;2023-05-13T10:14:28;101103.13;;;24.06;35.77
64827;BME280;51265;53.972;12.286;2023-05-13T10:16:57;101080.63;;;23.79;34.92
64827;BME280;51265;53.972;12.286;2023-05-13T10:19:25;101081.81;;;23.78;35.21
64827;BME280;51265;53.972;12.286;2023-05-13T10:21:51;101113.63;;;24.09;35.33
64827;BME280;51265;53.972;12.286;2023-05-13T10:24:20;101112.41;;;24.36;35.13
64827;BME280;51265;53.972;12.286;2023-05-13T10:26:52;101088.25;;;24.35;34.58
64827;BME280;51265;53.972;12.286;2023-05-13T10:29:21;101105.28;;;24.43;34.92
64827;BME280;51265;53.972;12.286;2023-05-13T10:31:48;101124.97;;;24.73;34.74
64827;BME280;51265;53.972;12.286;2023-05-13T10:34:15;101117.19;;;24.93;34.12
64827;BME280;51265;53.972;12.286;2023-05-13T10:42:36;101099.13;;;24.64;34.38
64827;BME280;51265;53.972;12.286;2023-05-13T10:45:03;101102.59;;;24.83;34.10
64827;BME280;51265;53.972;12.286;2023-05-13T10:47:34;101099.06;;;24.94;33.73
64827;BME280;51265;53.972;12.286;2023-05-13T10:52:48;101083.44;;;24.36;34.22
64827;BME280;51265;53.972;12.286;2023-05-13T10:55:19;101102.41;;;24.69;34.17
64827;BME280;51265;53.972;12.286;2023-05-13T11:00:34;101093.44;;;24.94;33.34
64827;BME280;51265;53.972;12.286;2023-05-13T11:05:58;101100.66;;;25.28;33.57
64827;BME280;51265;53.972;12.286;2023-05-13T11:08:35;101093.88;;;24.96;33.82
64827;BME280;51265;53.972;12.286;2023-05-13T11:11:02;101110.94;;;25.10;33.97
64827;BME280;51265;53.972;12.286;2023-05-13T11:13:41;101143.69;;;25.66;34.02
64827;BME280;51265;53.972;12.286;2023-05-13T11:16:10;101137.59;;;26.05;33.62
64827;BME280;51265;53.972;12.286;2023-05-13T11:18:38;101133.78;;;26.38;32.55
64827;BME280;51265;53.972;12.286;2023-05-13T11:21:06;101115.22;;;26.41;32.65
64827;BME280;51265;53.972;12.286;2023-05-13T11:23:59;101060.16;;;25.99;31.86
64827;BME280;51265;53.972;12.286;2023-05-13T11:26:42;101082.94;;;26.42;31.21
64827;BME280;51265;53.972;12.286;2023-05-13T11:29:09;101042.94;;;26.18;30.45
64827;BME280;51265;53.972;12.286;2023-05-13T11:31:49;101057.88;;;26.22;31.19
64827;BME280;51265;53.972;12.286;2023-05-13T11:34:18;101085.06;;;26.52;31.27
64827;BME280;51265;53.972;12.286;2023-05-13T11:36:48;101094.91;;;26.94;31.03
64827;BME280;51265;53.972;12.286;2023-05-13T11:39:16;101035.13;;;26.92;29.68
64827;BME280;51265;53.972;12.286;2023-05-13T11:41:45;101042.00;;;26.94;30.31
64827;BME280;51265;53.972;12.286;2023-05-13T11:44:14;101050.16;;;27.28;29.64
64827;BME280;51265;53.972;12.286;2023-05-13T11:49:53;101016.63;;;27.19;29.15
64827;BME280;51265;53.972;12.286;2023-05-13T11:52:19;101003.19;;;26.66;28.94
64827;BME280;51265;53.972;12.286;2023-05-13T11:54:50;100999.97;;;26.75;28.81
64827;BME280;51265;53.972;12.286;2023-05-13T12:02:24;101009.59;;;26.52;29.33
64827;BME280;51265;53.972;12.286;2023-05-13T12:04:51;101038.72;;;26.67;29.66
64827;BME280;51265;53.972;12.286;2023-05-13T12:07:19;101047.63;;;26.91;29.81
64827;BME280;51265;53.972;12.286;2023-05-13T12:09:50;101047.25;;;26.99;29.63
64827;BME280;51265;53.972;12.286;2023-05-13T12:12:18;101059.84;;;27.30;29.04
64827;BME280;51265;53.972;12.286;2023-05-13T12:14:46;101038.72;;;26.67;29.26
64827;BME280;51265;53.972;12.286;2023-05-13T12:17:16;101023.66;;;26.38;29.28
64827;BME280;51265;53.972;12.286;2023-05-13T12:20:09;101080.84;;;27.15;29.54
64827;BME280;51265;53.972;12.286;2023-05-13T12:22:56;101084.06;;;28.03;28.55
64827;BME280;51265;53.972;12.286;2023-05-13T12:33:26;101019.44;;;27.37;28.17
64827;BME280;51265;53.972;12.286;2023-05-13T12:36:14;101005.63;;;26.71;28.83
64827;BME280;51265;53.972;12.286;2023-05-13T12:39:06;101032.63;;;26.58;29.32
64827;BME280;51265;53.972;12.286;2023-05-13T12:41:38;101054.94;;;26.99;29.14
64827;BME280;51265;53.972;12.286;2023-05-13T12:44:13;101037.97;;;26.99;28.62
64827;BME280;51265;53.972;12.286;2023-05-13T12:46:53;101035.16;;;27.06;28.50
64827;BME280;51265;53.972;12.286;2023-05-13T12:49:20;101038.00;;;27.06;28.82
64827;BME280;51265;53.972;12.286;2023-05-13T12:51:47;101052.56;;;27.15;29.14
64827;BME280;51265;53.972;12.286;2023-05-13T12:54:13;101060.66;;;27.63;28.69
64827;BME280;51265;53.972;12.286;2023-05-13T12:56:39;101044.47;;;27.71;27.98
64827;BME280;51265;53.972;12.286;2023-05-13T12:59:06;101085.63;;;28.33;28.62
64827;BME280;51265;53.972;12.286;2023-05-13T13:01:35;101054.00;;;28.52;27.03
64827;BME280;51265;53.972;12.286;2023-05-13T13:04:01;101085.53;;;28.61;27.97
64827;BME280;51265;53.972;12.286;2023-05-13T13:06:27;101051.50;;;28.65;27.31
64827;BME280;51265;53.972;12.286;2023-05-13T13:08:54;101061.94;;;28.82;27.46
64827;BME280;51265;53.972;12.286;2023-05-13T13:11:20;101009.16;;;28.36;26.96
64827;BME280;51265;53.972;12.286;2023-05-13T13:13:47;101029.69;;;28.58;27.00
64827;BME280;51265;53.972;12.286;2023-05-13T13:16:13;101052.63;;;28.82;27.29
64827;BME280;51265;53.972;12.286;2023-05-13T13:18:41;101039.59;;;28.95;27.19
64827;BME280;51265;53.972;12.286;2023-05-13T13:21:08;101035.16;;;28.97;27.21
64827;BME280;51265;53.972;12.286;2023-05-13T13:23:34;101046.16;;;29.44;26.72